sensor_id;sensor_type;location;lat;lon;timestamp;temperature;humidity
40630;DHT22;26329;40.388;-3.710;2022-11-15T00:07:32;14.40;82.60
40630;DHT22;26329;40.388;-3.710;2022-11-15T00:17:33;14.40;82.40
40630;DHT22;26329;40.388;-3.710;2022-11-15T00:27:34;14.50;82.10
40630;DHT22;26329;40.388;-3.710;2022-11-15T00:37:36;14.60;82.10
40630;DHT22;26329;40.388;-3.710;2022-11-15T00:47:37;14.40;82.40
40630;DHT22;26329;40.388;-3.710;2022-11-15T00:57:39;14.40;82.40
40630;DHT22;26329;40.388;-3.710;2022-11-15T01:07:40;14.40;82.40
40630;DHT22;26329;40.388;-3.710;2022-11-15T01:17:42;14.40;82.50
40630;DHT22;26329;40.388;-3.710;2022-11-15T01:27:44;14.40;82.80
40630;DHT22;26329;40.388;-3.710;2022-11-15T01:37:45;14.50;82.70
40630;DHT22;26329;40.388;-3.710;2022-11-15T01:47:51;14.50;83.20
40630;DHT22;26329;40.388;-3.710;2022-11-15T01:57:58;14.50;83.10
40630;DHT22;26329;40.388;-3.710;2022-11-15T02:08:01;14.60;82.80
40630;DHT22;26329;40.388;-3.710;2022-11-15T02:28:32;14.60;82.50
40630;DHT22;26329;40.388;-3.710;2022-11-15T02:48:56;14.60;82.50
40630;DHT22;26329;40.388;-3.710;2022-11-15T02:59:38;14.60;82.50
40630;DHT22;26329;40.388;-3.710;2022-11-15T03:20:14;14.50;83.20
40630;DHT22;26329;40.388;-3.710;2022-11-15T03:30:18;14.50;83.20
40630;DHT22;26329;40.388;-3.710;2022-11-15T03:40:26;14.50;83.10
40630;DHT22;26329;40.388;-3.710;2022-11-15T03:50:31;14.50;82.80
40630;DHT22;26329;40.388;-3.710;2022-11-15T04:00:33;14.50;82.50
40630;DHT22;26329;40.388;-3.710;2022-11-15T04:10:35;14.60;82.30
40630;DHT22;26329;40.388;-3.710;2022-11-15T04:20:38;14.50;82.40
40630;DHT22;26329;40.388;-3.710;2022-11-15T04:31:00;14.50;82.30
40630;DHT22;26329;40.388;-3.710;2022-11-15T04:41:03;14.60;82.00
40630;DHT22;26329;40.388;-3.710;2022-11-15T04:51:05;14.50;82.00
40630;DHT22;26329;40.388;-3.710;2022-11-15T05:01:08;14.50;82.00
40630;DHT22;26329;40.388;-3.710;2022-11-15T05:11:09;14.50;81.90
40630;DHT22;26329;40.388;-3.710;2022-11-15T05:21:13;14.50;81.60
40630;DHT22;26329;40.388;-3.710;2022-11-15T05:31:16;14.40;81.80
40630;DHT22;26329;40.388;-3.710;2022-11-15T05:41:22;14.40;82.00
40630;DHT22;26329;40.388;-3.710;2022-11-15T05:51:29;14.40;82.00
40630;DHT22;26329;40.388;-3.710;2022-11-15T06:01:31;14.50;82.10
40630;DHT22;26329;40.388;-3.710;2022-11-15T06:11:33;14.60;82.40
40630;DHT22;26329;40.388;-3.710;2022-11-15T06:21:34;14.50;82.90
40630;DHT22;26329;40.388;-3.710;2022-11-15T06:31:36;14.50;83.20
40630;DHT22;26329;40.388;-3.710;2022-11-15T06:41:37;14.40;83.30
40630;DHT22;26329;40.388;-3.710;2022-11-15T06:51:39;14.50;83.00
40630;DHT22;26329;40.388;-3.710;2022-11-15T07:01:41;14.70;82.50
40630;DHT22;26329;40.388;-3.710;2022-11-15T07:11:42;14.70;81.80
40630;DHT22;26329;40.388;-3.710;2022-11-15T07:21:44;14.60;82.10
40630;DHT22;26329;40.388;-3.710;2022-11-15T07:31:46;14.60;81.90
40630;DHT22;26329;40.388;-3.710;2022-11-15T07:41:47;14.60;81.80
40630;DHT22;26329;40.388;-3.710;2022-11-15T07:51:50;14.60;81.90
40630;DHT22;26329;40.388;-3.710;2022-11-15T08:01:52;14.60;83.90
40630;DHT22;26329;40.388;-3.710;2022-11-15T08:11:55;14.60;83.50
40630;DHT22;26329;40.388;-3.710;2022-11-15T08:21:56;14.90;82.70
40630;DHT22;26329;40.388;-3.710;2022-11-15T08:31:58;14.90;82.30
40630;DHT22;26329;40.388;-3.710;2022-11-15T08:42:00;15.00;82.40
40630;DHT22;26329;40.388;-3.710;2022-11-15T08:52:02;15.10;82.30
40630;DHT22;26329;40.388;-3.710;2022-11-15T09:02:04;15.20;82.00
40630;DHT22;26329;40.388;-3.710;2022-11-15T09:12:07;15.30;82.60
40630;DHT22;26329;40.388;-3.710;2022-11-15T09:22:08;15.30;82.90
40630;DHT22;26329;40.388;-3.710;2022-11-15T09:32:10;15.40;82.10
40630;DHT22;26329;40.388;-3.710;2022-11-15T09:52:28;15.70;79.10
40630;DHT22;26329;40.388;-3.710;2022-11-15T10:13:25;15.90;77.40
40630;DHT22;26329;40.388;-3.710;2022-11-15T10:23:28;16.80;73.30
40630;DHT22;26329;40.388;-3.710;2022-11-15T10:43:37;17.40;70.50
40630;DHT22;26329;40.388;-3.710;2022-11-15T10:53:43;17.20;70.00
40630;DHT22;26329;40.388;-3.710;2022-11-15T11:14:21;17.70;68.30
40630;DHT22;26329;40.388;-3.710;2022-11-15T11:25:08;17.80;67.50
40630;DHT22;26329;40.388;-3.710;2022-11-15T11:56:31;17.50;68.80
40630;DHT22;26329;40.388;-3.710;2022-11-15T12:16:41;17.40;67.10
40630;DHT22;26329;40.388;-3.710;2022-11-15T12:27:36;17.80;66.80
40630;DHT22;26329;40.388;-3.710;2022-11-15T12:47:39;18.00;61.50
40630;DHT22;26329;40.388;-3.710;2022-11-15T12:57:41;18.30;61.30
40630;DHT22;26329;40.388;-3.710;2022-11-15T13:27:50;18.00;58.40
40630;DHT22;26329;40.388;-3.710;2022-11-15T13:37:54;17.60;59.10
40630;DHT22;26329;40.388;-3.710;2022-11-15T13:47:57;17.30;60.80
40630;DHT22;26329;40.388;-3.710;2022-11-15T13:58:02;17.30;61.70
40630;DHT22;26329;40.388;-3.710;2022-11-15T14:29:26;17.00;63.40
40630;DHT22;26329;40.388;-3.710;2022-11-15T14:39:28;17.20;63.40
40630;DHT22;26329;40.388;-3.710;2022-11-15T14:49:29;17.30;64.00
40630;DHT22;26329;40.388;-3.710;2022-11-15T14:59:31;17.30;63.90
40630;DHT22;26329;40.388;-3.710;2022-11-15T15:09:33;17.10;65.60
40630;DHT22;26329;40.388;-3.710;2022-11-15T15:19:34;17.10;67.00
40630;DHT22;26329;40.388;-3.710;2022-11-15T15:29:36;16.90;67.80
40630;DHT22;26329;40.388;-3.710;2022-11-15T15:39:38;16.80;68.60
40630;DHT22;26329;40.388;-3.710;2022-11-15T15:49:39;16.50;70.30
40630;DHT22;26329;40.388;-3.710;2022-11-15T15:59:41;16.30;71.40
40630;DHT22;26329;40.388;-3.710;2022-11-15T16:09:43;16.50;72.10
40630;DHT22;26329;40.388;-3.710;2022-11-15T16:20:04;16.50;74.50
40630;DHT22;26329;40.388;-3.710;2022-11-15T16:30:12;16.30;75.50
40630;DHT22;26329;40.388;-3.710;2022-11-15T16:40:29;16.00;78.60
40630;DHT22;26329;40.388;-3.710;2022-11-15T16:50:33;15.50;81.30
40630;DHT22;26329;40.388;-3.710;2022-11-15T17:00:41;15.40;81.80
40630;DHT22;26329;40.388;-3.710;2022-11-15T17:10:42;15.20;82.90
40630;DHT22;26329;40.388;-3.710;2022-11-15T17:20:44;15.10;83.50
40630;DHT22;26329;40.388;-3.710;2022-11-15T17:30:46;15.10;84.10
40630;DHT22;26329;40.388;-3.710;2022-11-15T17:40:47;15.30;83.70
40630;DHT22;26329;40.388;-3.710;2022-11-15T17:51:18;15.30;83.70
40630;DHT22;26329;40.388;-3.710;2022-11-15T18:01:27;15.40;83.20
40630;DHT22;26329;40.388;-3.710;2022-11-15T18:11:48;15.70;82.50
40630;DHT22;26329;40.388;-3.710;2022-11-15T18:21:51;15.80;81.80
40630;DHT22;26329;40.388;-3.710;2022-11-15T18:31:56;15.80;81.30
40630;DHT22;26329;40.388;-3.710;2022-11-15T18:41:59;15.50;82.80
40630;DHT22;26329;40.388;-3.710;2022-11-15T18:52:01;15.50;83.30
40630;DHT22;26329;40.388;-3.710;2022-11-15T19:02:03;15.40;84.00
40630;DHT22;26329;40.388;-3.710;2022-11-15T19:12:04;15.30;85.00
40630;DHT22;26329;40.388;-3.710;2022-11-15T19:22:06;15.30;85.10
40630;DHT22;26329;40.388;-3.710;2022-11-15T19:32:08;15.20;85.70
40630;DHT22;26329;40.388;-3.710;2022-11-15T19:42:09;15.20;85.60
40630;DHT22;26329;40.388;-3.710;2022-11-15T19:52:11;15.30;86.10
40630;DHT22;26329;40.388;-3.710;2022-11-15T20:02:12;15.20;86.50
40630;DHT22;26329;40.388;-3.710;2022-11-15T20:12:13;15.10;86.60
40630;DHT22;26329;40.388;-3.710;2022-11-15T20:22:15;15.20;86.70
40630;DHT22;26329;40.388;-3.710;2022-11-15T20:32:17;15.10;86.90
40630;DHT22;26329;40.388;-3.710;2022-11-15T20:42:19;15.10;87.10
40630;DHT22;26329;40.388;-3.710;2022-11-15T20:52:20;15.10;87.20
40630;DHT22;26329;40.388;-3.710;2022-11-15T21:02:22;15.10;87.40
40630;DHT22;26329;40.388;-3.710;2022-11-15T21:12:24;15.10;87.80
40630;DHT22;26329;40.388;-3.710;2022-11-15T21:22:26;15.10;87.90
40630;DHT22;26329;40.388;-3.710;2022-11-15T21:32:28;15.10;88.10
40630;DHT22;26329;40.388;-3.710;2022-11-15T21:42:30;15.10;88.10
40630;DHT22;26329;40.388;-3.710;2022-11-15T21:52:31;15.10;88.00
40630;DHT22;26329;40.388;-3.710;2022-11-15T22:02:33;15.10;88.00
40630;DHT22;26329;40.388;-3.710;2022-11-15T22:12:34;15.20;88.10
40630;DHT22;26329;40.388;-3.710;2022-11-15T22:22:36;15.20;87.90
40630;DHT22;26329;40.388;-3.710;2022-11-15T22:32:37;15.20;88.10
40630;DHT22;26329;40.388;-3.710;2022-11-15T22:42:38;15.30;88.10
40630;DHT22;26329;40.388;-3.710;2022-11-15T22:52:40;15.30;87.90
40630;DHT22;26329;40.388;-3.710;2022-11-15T23:02:42;15.30;87.30
40630;DHT22;26329;40.388;-3.710;2022-11-15T23:12:43;15.20;86.80
40630;DHT22;26329;40.388;-3.710;2022-11-15T23:23:03;15.20;86.40
40630;DHT22;26329;40.388;-3.710;2022-11-15T23:33:05;15.30;86.40
40630;DHT22;26329;40.388;-3.710;2022-11-15T23:43:25;15.20;86.40
40630;DHT22;26329;40.388;-3.710;2022-11-15T23:53:27;15.10;86.00
